createdAt,value
2018-11-21T00:02:22.570Z,48.02
2018-11-21T00:04:49.897Z,52.53
2018-11-21T00:07:17.204Z,50.20
2018-11-21T00:09:44.519Z,49.00
2018-11-21T00:12:11.784Z,40.40
2018-11-21T00:14:39.125Z,45.85
2018-11-21T00:17:06.444Z,40.98
2018-11-21T00:19:33.932Z,49.05
2018-11-21T00:22:01.277Z,36.58
2018-11-21T00:24:28.591Z,43.50
2018-11-21T00:26:55.871Z,37.50
2018-11-21T00:29:23.248Z,42.58
2018-11-21T00:31:50.561Z,42.78
2018-11-21T00:34:17.836Z,47.55
2018-11-21T00:36:45.251Z,50.58
2018-11-21T00:39:12.524Z,42.08
2018-11-21T00:41:40.093Z,39.50
2018-11-21T00:44:07.446Z,34.10
2018-11-21T00:46:34.733Z,40.90
2018-11-21T00:49:02.036Z,46.18
2018-11-21T00:51:29.327Z,34.83
2018-11-21T00:53:56.616Z,42.80
2018-11-21T00:56:23.927Z,42.30
2018-11-21T00:58:51.221Z,42.17
2018-11-21T01:01:18.556Z,41.65
2018-11-21T01:03:45.843Z,42.83
2018-11-21T01:06:13.115Z,42.65
2018-11-21T01:08:40.432Z,38.65
2018-11-21T01:11:07.777Z,42.75
2018-11-21T01:13:35.086Z,46.33
2018-11-21T01:16:02.391Z,40.00
2018-11-21T01:18:29.677Z,42.80
2018-11-21T01:20:57.100Z,44.40
2018-11-21T01:23:24.418Z,32.80
2018-11-21T01:25:51.796Z,44.38
2018-11-21T01:28:19.062Z,35.58
2018-11-21T01:30:46.355Z,36.08
2018-11-21T01:33:13.638Z,38.33
2018-11-21T01:35:40.955Z,41.23
2018-11-21T01:38:08.275Z,36.48
2018-11-21T01:40:35.565Z,36.45
2018-11-21T01:43:02.855Z,44.60
2018-11-21T01:45:30.174Z,42.20
2018-11-21T01:47:57.487Z,47.13
2018-11-21T01:50:24.831Z,40.48
2018-11-21T01:52:52.157Z,35.38
2018-11-21T01:55:19.510Z,40.80
2018-11-21T01:57:46.851Z,39.40
2018-11-21T02:00:14.171Z,41.70
2018-11-21T02:02:41.467Z,40.48
2018-11-21T02:05:08.811Z,34.40
2018-11-21T02:07:36.067Z,43.75
2018-11-21T02:10:03.409Z,40.70
2018-11-21T02:12:30.823Z,38.08
2018-11-21T02:14:58.157Z,36.42
2018-11-21T02:17:25.485Z,36.93
2018-11-21T02:19:52.804Z,37.23
2018-11-21T02:22:20.157Z,34.15
2018-11-21T02:24:47.409Z,40.73
2018-11-21T02:27:14.763Z,36.80
2018-11-21T02:29:42.078Z,41.70
2018-11-21T02:32:09.368Z,37.25
2018-11-21T02:34:36.697Z,37.95
2018-11-21T02:37:03.983Z,39.65
2018-11-21T02:39:31.301Z,42.55
2018-11-21T02:41:58.619Z,37.20
2018-11-21T02:44:25.938Z,37.55
2018-11-21T02:46:53.261Z,33.88
2018-11-21T02:49:20.599Z,40.65
2018-11-21T02:51:47.902Z,37.70
2018-11-21T02:54:15.209Z,33.60
2018-11-21T02:57:02.722Z,34.65
2018-11-21T02:59:30.383Z,31.77
2018-11-21T03:01:57.720Z,37.30
2018-11-21T03:04:25.642Z,45.83
2018-11-21T03:06:52.992Z,31.75
2018-11-21T03:09:20.264Z,39.05
2018-11-21T03:11:47.601Z,30.43
2018-11-21T03:14:14.886Z,41.42
2018-11-21T03:16:42.181Z,37.42
2018-11-21T03:19:09.530Z,37.23
2018-11-21T03:21:36.788Z,39.18
2018-11-21T03:24:04.184Z,39.38
2018-11-21T03:26:31.532Z,34.85
2018-11-21T03:28:58.937Z,40.45
2018-11-21T03:31:26.207Z,34.33
2018-11-21T03:33:57.684Z,39.60
2018-11-21T03:36:21.669Z,37.58
2018-11-21T03:38:48.987Z,42.67
2018-11-21T03:41:16.274Z,37.35
2018-11-21T03:43:43.678Z,33.23
2018-11-21T03:46:11.008Z,35.25
2018-11-21T03:48:38.323Z,40.58
2018-11-21T03:51:05.920Z,39.18
2018-11-21T03:53:33.163Z,39.18
2018-11-21T03:56:00.475Z,37.17
2018-11-21T03:58:27.765Z,38.40
2018-11-21T04:00:55.081Z,35.75
2018-11-21T04:03:22.423Z,35.68
2018-11-21T04:05:49.680Z,41.65
2018-11-21T04:08:16.993Z,38.10
2018-11-21T04:10:44.244Z,42.25
2018-11-21T04:13:11.562Z,40.12
2018-11-21T04:15:46.318Z,32.03
2018-11-21T04:18:13.587Z,39.23
2018-11-21T04:20:40.941Z,37.53
2018-11-21T04:23:08.275Z,33.83
2018-11-21T04:25:35.620Z,47.50
2018-11-21T04:28:02.903Z,37.60
2018-11-21T04:30:30.217Z,40.30
2018-11-21T04:32:57.487Z,39.33
2018-11-21T04:35:24.837Z,37.38
2018-11-21T04:37:52.102Z,39.05
2018-11-21T04:40:19.386Z,45.80
2018-11-21T04:42:46.694Z,42.20
2018-11-21T04:45:13.960Z,46.83
2018-11-21T04:47:41.283Z,43.45
2018-11-21T04:50:08.907Z,44.83
2018-11-21T04:52:36.206Z,48.75
2018-11-21T04:55:03.471Z,44.45
2018-11-21T04:57:30.748Z,46.40
2018-11-21T04:59:58.067Z,44.60
2018-11-21T05:02:25.334Z,43.25
2018-11-21T05:04:52.659Z,41.10
2018-11-21T05:07:19.950Z,40.55
2018-11-21T05:09:47.228Z,43.13
2018-11-21T05:12:14.539Z,41.37
2018-11-21T05:14:41.918Z,46.33
2018-11-21T05:17:09.257Z,45.58
2018-11-21T05:19:36.545Z,39.88
2018-11-21T05:22:03.936Z,46.92
2018-11-21T05:24:31.243Z,45.48
2018-11-21T05:26:58.629Z,43.52
2018-11-21T05:29:25.953Z,46.70
2018-11-21T05:31:53.249Z,44.00
2018-11-21T05:34:20.566Z,43.50
2018-11-21T05:36:47.856Z,44.58
2018-11-21T05:39:15.149Z,46.77
2018-11-21T05:41:42.484Z,41.88
2018-11-21T05:44:09.770Z,48.70
2018-11-21T05:46:37.025Z,44.50
2018-11-21T05:49:04.297Z,46.73
2018-11-21T05:51:31.624Z,49.77
2018-11-21T05:53:59.032Z,45.80
2018-11-21T05:56:26.293Z,44.13
2018-11-21T05:58:53.578Z,50.03
2018-11-21T06:01:20.925Z,43.70
2018-11-21T06:03:48.247Z,48.33
2018-11-21T06:06:15.551Z,44.65
2018-11-21T06:08:42.968Z,49.67
2018-11-21T06:11:10.326Z,46.95
2018-11-21T06:13:37.623Z,43.95
2018-11-21T06:16:05.475Z,40.15
2018-11-21T06:18:33.052Z,45.35
2018-11-21T06:21:00.706Z,39.25
2018-11-21T06:23:27.974Z,49.42
2018-11-21T06:25:55.295Z,41.15
2018-11-21T06:28:22.617Z,48.23
2018-11-21T06:30:49.892Z,42.65
2018-11-21T06:33:17.172Z,45.65
2018-11-21T06:35:44.495Z,43.87
2018-11-21T06:38:11.808Z,48.33
2018-11-21T06:40:39.044Z,44.15
2018-11-21T06:43:06.309Z,48.85
2018-11-21T06:45:33.636Z,46.37
2018-11-21T06:48:00.980Z,48.20
2018-11-21T06:50:28.255Z,44.55
2018-11-21T06:52:56.223Z,47.55
2018-11-21T06:55:23.491Z,44.58
2018-11-21T06:57:50.781Z,44.33
2018-11-21T07:00:18.067Z,41.40
2018-11-21T07:02:45.404Z,48.13
2018-11-21T07:05:12.690Z,54.53
2018-11-21T07:07:40.012Z,48.45
2018-11-21T07:10:08.761Z,46.13
2018-11-21T07:12:35.993Z,50.15
2018-11-21T07:15:03.364Z,48.08
2018-11-21T07:17:30.630Z,47.80
2018-11-21T07:19:57.908Z,42.98
2018-11-21T07:22:25.220Z,45.88
2018-11-21T07:24:52.505Z,54.65
2018-11-21T07:27:19.762Z,43.28
2018-11-21T07:29:47.398Z,46.90
2018-11-21T07:32:14.710Z,45.60
2018-11-21T07:34:42.013Z,53.28
2018-11-21T07:37:09.318Z,49.80
2018-11-21T07:39:36.608Z,46.88
2018-11-21T07:42:03.954Z,51.02
2018-11-21T07:44:31.219Z,45.95
2018-11-21T07:46:58.503Z,45.98
2018-11-21T07:49:25.802Z,52.62
2018-11-21T07:51:53.104Z,55.75
2018-11-21T07:54:20.449Z,52.67
2018-11-21T07:57:07.171Z,51.18
2018-11-21T07:59:34.522Z,41.30
2018-11-21T08:05:06.914Z,49.45
2018-11-21T08:07:53.482Z,52.78
2018-11-21T08:10:42.568Z,52.55
2018-11-21T08:13:29.504Z,52.23
2018-11-21T08:16:16.090Z,53.52
2018-11-21T08:18:54.394Z,55.78
2018-11-21T08:21:40.951Z,46.40
2018-11-21T08:24:16.469Z,52.03
2018-11-21T08:27:01.418Z,50.15
2018-11-21T08:29:28.697Z,44.80
2018-11-21T08:31:57.267Z,51.33
2018-11-21T08:34:24.741Z,50.63
2018-11-21T08:36:52.671Z,49.77
2018-11-21T08:39:21.251Z,47.88
2018-11-21T08:42:08.344Z,52.88
2018-11-21T08:44:35.708Z,53.48
2018-11-21T08:47:06.154Z,53.10
2018-11-21T08:49:33.516Z,50.78
2018-11-21T08:52:01.032Z,53.33
2018-11-21T08:54:28.364Z,49.75
2018-11-21T08:56:55.640Z,53.05
2018-11-21T08:59:22.976Z,51.53
2018-11-21T09:01:50.871Z,48.35
2018-11-21T09:04:18.182Z,47.73
2018-11-21T09:06:45.879Z,49.38
2018-11-21T09:09:13.185Z,55.63
2018-11-21T09:11:40.934Z,56.18
2018-11-21T09:14:08.260Z,51.13
2018-11-21T09:16:54.986Z,50.60
2018-11-21T09:19:22.630Z,49.42
2018-11-21T09:21:50.357Z,54.77
2018-11-21T09:24:17.980Z,52.05
2018-11-21T09:26:45.632Z,50.48
2018-11-21T09:29:13.387Z,55.78
2018-11-21T09:31:41.151Z,51.92
2018-11-21T09:34:08.473Z,46.02
2018-11-21T09:36:35.809Z,50.08
2018-11-21T09:39:03.466Z,53.75
2018-11-21T09:41:31.389Z,56.80
2018-11-21T09:43:58.948Z,52.85
2018-11-21T09:46:26.614Z,51.65
2018-11-21T09:48:55.071Z,51.25
2018-11-21T09:51:22.860Z,54.10
2018-11-21T09:53:50.257Z,48.38
2018-11-21T09:56:17.986Z,48.38
2018-11-21T09:58:45.885Z,53.98
2018-11-21T10:01:32.608Z,49.18
2018-11-21T10:04:01.081Z,49.23
2018-11-21T10:06:28.922Z,52.40
2018-11-21T10:09:00.917Z,52.98
2018-11-21T10:11:28.759Z,52.50
2018-11-21T10:13:56.467Z,50.63
2018-11-21T10:16:24.263Z,46.45
2018-11-21T10:18:53.992Z,48.02
2018-11-21T10:21:23.013Z,46.45
2018-11-21T10:23:50.340Z,53.95
2018-11-21T10:26:17.896Z,50.05
2018-11-21T10:28:47.093Z,55.00
2018-11-21T10:31:14.425Z,56.10
2018-11-21T10:33:41.769Z,46.18
2018-11-21T10:36:09.153Z,47.70
2018-11-21T10:38:36.467Z,55.38
2018-11-21T10:41:03.887Z,54.33
2018-11-21T10:43:31.836Z,55.15
2018-11-21T10:45:59.222Z,55.08
2018-11-21T10:48:26.980Z,52.08
2018-11-21T10:50:54.302Z,50.00
2018-11-21T10:53:21.699Z,54.98
2018-11-21T10:55:49.115Z,55.03
2018-11-21T10:58:16.436Z,53.48
2018-11-21T11:01:03.081Z,49.58
2018-11-21T11:03:49.602Z,48.30
2018-11-21T11:06:36.226Z,56.65
2018-11-21T11:09:22.789Z,53.50
2018-11-21T11:12:10.339Z,52.70
2018-11-21T11:14:56.877Z,53.33
2018-11-21T11:17:43.594Z,51.42
2018-11-21T11:20:30.154Z,52.35
2018-11-21T11:23:17.028Z,57.58
2018-11-21T11:26:03.807Z,57.45
2018-11-21T11:28:50.455Z,50.48
2018-11-21T11:34:43.988Z,53.23
2018-11-21T11:37:48.492Z,54.05
2018-11-21T11:40:35.381Z,56.35
2018-11-21T11:43:21.924Z,53.50
2018-11-21T11:49:00.960Z,53.45
2018-11-21T11:51:47.769Z,46.33
2018-11-21T11:54:34.923Z,56.33
2018-11-21T11:57:21.984Z,51.98
2018-11-21T12:00:08.785Z,49.08
2018-11-21T12:02:55.334Z,52.20
2018-11-21T12:05:41.876Z,52.90
2018-11-21T12:08:46.360Z,53.55
2018-11-21T12:11:31.347Z,46.83
2018-11-21T12:14:35.976Z,51.25
2018-11-21T12:17:15.457Z,45.15
2018-11-21T12:20:06.398Z,55.52
2018-11-21T12:22:51.391Z,48.68
2018-11-21T12:25:43.743Z,53.60
2018-11-21T12:28:36.302Z,51.45
2018-11-21T12:31:22.559Z,51.15
2018-11-21T12:34:18.565Z,48.28
2018-11-21T12:37:03.827Z,55.67
2018-11-21T12:39:49.164Z,47.38
2018-11-21T12:42:34.325Z,53.68
2018-11-21T12:45:20.344Z,51.85
2018-11-21T12:48:09.505Z,53.05
2018-11-21T12:51:04.156Z,51.68
2018-11-21T12:53:44.166Z,51.68
2018-11-21T12:56:22.026Z,51.75
2018-11-21T12:59:07.310Z,50.20
2018-11-21T13:01:53.837Z,51.28
2018-11-21T13:04:43.199Z,52.45
2018-11-21T13:07:33.254Z,53.87
2018-11-21T13:10:22.503Z,49.23
2018-11-21T13:13:07.932Z,60.08
2018-11-21T13:15:53.033Z,53.33
2018-11-21T13:18:38.348Z,52.17
2018-11-21T13:21:33.915Z,59.77
2018-11-21T13:24:23.184Z,55.23
2018-11-21T13:27:15.762Z,57.08
2018-11-21T13:30:05.024Z,51.80
2018-11-21T13:32:51.021Z,52.75
2018-11-21T13:35:26.216Z,51.73
2018-11-21T13:38:27.722Z,58.63
2018-11-21T13:41:17.345Z,49.80
2018-11-21T13:44:02.474Z,50.80
2018-11-21T13:46:49.305Z,60.78
2018-11-21T13:49:38.547Z,56.28
2018-11-21T13:52:31.119Z,60.43
2018-11-21T13:54:59.861Z,63.00
2018-11-21T13:57:27.505Z,65.17
2018-11-21T13:59:55.348Z,53.08
2018-11-21T14:02:22.812Z,55.98
2018-11-21T14:04:50.275Z,60.20
2018-11-21T14:07:17.908Z,56.50
2018-11-21T14:09:45.223Z,55.67
2018-11-21T14:12:12.561Z,54.73
2018-11-21T14:14:40.472Z,58.87
2018-11-21T14:17:07.920Z,61.25
2018-11-21T14:19:35.523Z,58.45
2018-11-21T14:22:02.919Z,54.80
2018-11-21T14:24:30.746Z,48.40
2018-11-21T14:26:58.172Z,53.92
2018-11-21T14:29:25.617Z,50.20
2018-11-21T14:31:52.988Z,55.05
2018-11-21T14:34:22.110Z,53.73
2018-11-21T14:36:49.389Z,56.10
2018-11-21T14:39:17.060Z,58.58
2018-11-21T14:41:45.398Z,53.75
2018-11-21T14:44:12.731Z,53.42
2018-11-21T14:46:40.557Z,56.35
2018-11-21T14:49:08.224Z,49.18
2018-11-21T14:51:36.001Z,52.38
2018-11-21T14:54:03.293Z,54.15
2018-11-21T14:56:30.649Z,54.33
2018-11-21T14:58:58.154Z,53.35
2018-11-21T15:01:25.543Z,52.25
2018-11-21T15:03:52.841Z,48.28
2018-11-21T15:06:20.207Z,52.45
2018-11-21T15:08:47.658Z,57.38
2018-11-21T15:11:15.062Z,61.02
2018-11-21T15:13:42.353Z,52.30
2018-11-21T15:16:09.756Z,52.98
2018-11-21T15:18:37.144Z,48.90
2018-11-21T15:21:04.807Z,56.42
2018-11-21T15:23:32.079Z,49.30
2018-11-21T15:25:59.383Z,51.02
2018-11-21T15:28:27.928Z,53.10
2018-11-21T15:30:54.362Z,52.43
2018-11-21T15:33:21.687Z,58.95
2018-11-21T15:35:49.036Z,51.37
2018-11-21T15:38:16.429Z,50.60
2018-11-21T15:40:47.049Z,50.67
2018-11-21T15:43:11.135Z,50.63
2018-11-21T15:45:38.657Z,52.73
2018-11-21T15:48:06.162Z,50.25
2018-11-21T15:50:33.937Z,49.80
2018-11-21T15:53:01.277Z,51.90
2018-11-21T15:55:28.631Z,57.08
2018-11-21T15:57:56.062Z,50.95
2018-11-21T16:00:28.265Z,56.50
2018-11-21T16:02:57.639Z,47.88
2018-11-21T16:05:25.292Z,51.23
2018-11-21T16:07:52.635Z,52.45
2018-11-21T16:10:21.837Z,47.20
2018-11-21T16:12:49.160Z,50.55
2018-11-21T16:15:18.827Z,52.48
2018-11-21T16:17:46.280Z,50.60
2018-11-21T16:20:14.852Z,47.95
2018-11-21T16:22:42.229Z,46.53
2018-11-21T16:25:12.830Z,46.90
2018-11-21T16:27:40.563Z,53.68
2018-11-21T16:30:09.002Z,51.05
2018-11-21T16:32:36.336Z,46.53
2018-11-21T16:35:08.260Z,45.25
2018-11-21T16:37:31.253Z,46.63
2018-11-21T16:39:58.608Z,51.05
2018-11-21T16:42:25.952Z,49.67
2018-11-21T16:44:53.285Z,45.00
2018-11-21T16:47:20.710Z,56.13
2018-11-21T16:49:48.029Z,52.00
2018-11-21T16:52:15.661Z,50.83
2018-11-21T16:54:43.406Z,55.92
2018-11-21T16:57:11.859Z,52.27
2018-11-21T16:59:40.558Z,49.63
2018-11-21T17:02:07.839Z,47.60
2018-11-21T17:04:39.130Z,53.00
2018-11-21T17:07:07.658Z,46.88
2018-11-21T17:09:43.404Z,47.98
2018-11-21T17:12:13.065Z,48.40
2018-11-21T17:14:41.186Z,53.55
2018-11-21T17:17:08.741Z,50.35
2018-11-21T17:19:36.078Z,47.35
2018-11-21T17:22:03.389Z,48.80
2018-11-21T17:24:31.064Z,49.60
2018-11-21T17:26:59.017Z,49.15
2018-11-21T17:29:26.970Z,54.35
2018-11-21T17:31:54.351Z,53.40
2018-11-21T17:34:21.853Z,53.08
2018-11-21T17:36:49.787Z,51.80
2018-11-21T17:39:17.200Z,44.55
2018-11-21T17:41:44.907Z,49.05
2018-11-21T17:44:12.813Z,50.63
2018-11-21T17:46:40.388Z,50.98
2018-11-21T17:49:08.126Z,52.38
2018-11-21T17:51:35.483Z,58.52
2018-11-21T17:54:03.295Z,61.77
2018-11-21T17:56:30.575Z,58.68
2018-11-21T17:58:57.889Z,55.28
2018-11-21T18:01:25.203Z,53.58
2018-11-21T18:03:52.537Z,57.78
2018-11-21T18:06:19.828Z,56.48
2018-11-21T18:08:47.135Z,56.10
2018-11-21T18:11:14.618Z,57.20
2018-11-21T18:13:42.454Z,64.32
2018-11-21T18:16:29.140Z,54.67
2018-11-21T18:18:56.473Z,58.25
2018-11-21T18:21:23.825Z,52.33
2018-11-21T18:23:51.169Z,55.73
2018-11-21T18:26:18.490Z,56.15
2018-11-21T18:28:45.806Z,58.25
2018-11-21T18:31:13.107Z,55.23
2018-11-21T18:33:40.382Z,51.68
2018-11-21T18:36:07.879Z,53.40
2018-11-21T18:38:35.270Z,51.92
2018-11-21T18:41:02.647Z,58.48
2018-11-21T18:43:29.974Z,52.90
2018-11-21T18:45:57.269Z,59.50
2018-11-21T18:48:24.609Z,58.95
2018-11-21T18:50:51.904Z,58.52
2018-11-21T18:53:19.252Z,59.48
2018-11-21T18:55:50.882Z,55.98
2018-11-21T18:58:22.536Z,61.23
2018-11-21T19:00:50.635Z,63.05
2018-11-21T19:03:17.979Z,60.88
2018-11-21T19:05:45.356Z,64.42
2018-11-21T19:08:12.675Z,58.08
2018-11-21T19:10:40.072Z,61.98
2018-11-21T19:13:07.409Z,60.58
2018-11-21T19:15:34.724Z,62.62
2018-11-21T19:18:02.053Z,61.68
2018-11-21T19:20:29.342Z,56.92
2018-11-21T19:22:56.714Z,63.08
2018-11-21T19:25:24.029Z,61.37
2018-11-21T19:27:51.349Z,60.63
2018-11-21T19:30:19.370Z,58.68
2018-11-21T19:32:46.910Z,64.25
2018-11-21T19:35:14.242Z,60.98
2018-11-21T19:37:41.556Z,61.50
2018-11-21T19:40:09.780Z,61.95
2018-11-21T19:42:37.079Z,64.15
2018-11-21T19:45:04.580Z,69.17
2018-11-21T19:47:31.925Z,58.75
2018-11-21T19:49:59.253Z,62.80
2018-11-21T19:52:26.527Z,62.43
2018-11-21T19:54:53.875Z,57.88
2018-11-21T19:57:27.891Z,61.42
2018-11-21T19:59:55.564Z,58.10
2018-11-21T20:02:22.865Z,62.93
2018-11-21T20:04:50.612Z,59.90
2018-11-21T20:07:19.287Z,65.28
2018-11-21T20:09:46.587Z,67.75
2018-11-21T20:12:14.373Z,61.23
2018-11-21T20:14:41.837Z,68.95
2018-11-21T20:17:09.516Z,63.35
2018-11-21T20:19:37.001Z,65.05
2018-11-21T20:22:04.442Z,64.85
2018-11-21T20:24:31.725Z,65.10
2018-11-21T20:27:00.382Z,61.13
2018-11-21T20:29:28.166Z,64.40
2018-11-21T20:31:56.778Z,69.90
2018-11-21T20:34:27.103Z,73.83
2018-11-21T20:36:54.608Z,70.75
2018-11-21T20:39:22.408Z,69.58
2018-11-21T20:41:50.285Z,65.40
2018-11-21T20:44:18.836Z,56.83
2018-11-21T20:46:46.774Z,68.92
2018-11-21T20:49:14.700Z,64.10
2018-11-21T20:51:42.425Z,70.40
2018-11-21T20:54:10.991Z,75.92
2018-11-21T20:56:39.405Z,71.42
2018-11-21T20:59:07.039Z,63.35
2018-11-21T21:01:36.164Z,71.28
2018-11-21T21:04:05.083Z,64.00
2018-11-21T21:06:33.746Z,73.20
2018-11-21T21:09:01.401Z,68.42
2018-11-21T21:11:29.897Z,65.60
2018-11-21T21:13:58.928Z,62.98
2018-11-21T21:16:26.755Z,71.45
2018-11-21T21:18:54.338Z,65.25
2018-11-21T21:21:21.978Z,68.60
2018-11-21T21:23:49.944Z,65.08
2018-11-21T21:26:17.995Z,70.22
2018-11-21T21:28:45.646Z,71.10
2018-11-21T21:31:13.338Z,69.75
2018-11-21T21:33:41.175Z,68.97
2018-11-21T21:36:08.463Z,63.25
2018-11-21T21:38:36.773Z,60.17
2018-11-21T21:41:04.884Z,64.92
2018-11-21T21:43:32.590Z,64.47
2018-11-21T21:45:59.907Z,66.82
2018-11-21T21:48:29.174Z,65.40
2018-11-21T21:50:57.450Z,64.00
2018-11-21T21:53:26.619Z,62.83
2018-11-21T21:55:53.971Z,60.98
2018-11-21T21:58:22.844Z,58.98
2018-11-21T22:00:50.625Z,69.15
2018-11-21T22:03:17.984Z,68.62
2018-11-21T22:05:45.377Z,59.40
2018-11-21T22:08:12.902Z,59.70
2018-11-21T22:10:40.195Z,62.58
2018-11-21T22:13:07.740Z,66.55
2018-11-21T22:15:37.348Z,58.42
2018-11-21T22:18:06.783Z,68.10
2018-11-21T22:20:34.139Z,57.30
2018-11-21T22:23:02.179Z,64.03
2018-11-21T22:25:30.179Z,66.55
2018-11-21T22:27:57.909Z,69.58
2018-11-21T22:30:25.326Z,68.05
2018-11-21T22:32:53.379Z,63.17
2018-11-21T22:35:25.088Z,68.70
2018-11-21T22:37:51.690Z,63.98
2018-11-21T22:40:19.952Z,65.45
2018-11-21T22:42:48.041Z,69.32
2018-11-21T22:45:16.738Z,62.30
2018-11-21T22:47:44.174Z,63.70
2018-11-21T22:50:13.292Z,57.62
2018-11-21T22:52:40.659Z,62.78
2018-11-21T22:55:08.799Z,65.57
2018-11-21T22:57:38.319Z,60.23
2018-11-21T23:00:08.697Z,69.27
2018-11-21T23:02:36.390Z,72.32
2018-11-21T23:05:04.583Z,68.50
2018-11-21T23:07:32.536Z,60.08
2018-11-21T23:10:00.499Z,61.60
2018-11-21T23:12:28.108Z,60.12
2018-11-21T23:14:57.141Z,60.45
2018-11-21T23:17:25.058Z,65.10
2018-11-21T23:19:52.505Z,63.30
2018-11-21T23:22:20.342Z,62.43
2018-11-21T23:24:47.644Z,61.42
2018-11-21T23:27:15.461Z,64.15
2018-11-21T23:29:42.778Z,63.73
2018-11-21T23:32:10.349Z,61.80
2018-11-21T23:34:38.123Z,59.80
2018-11-21T23:37:05.535Z,66.25
2018-11-21T23:39:33.340Z,68.65
2018-11-21T23:42:00.728Z,64.97
2018-11-21T23:44:28.008Z,61.45
2018-11-21T23:46:55.346Z,59.65
2018-11-21T23:49:22.665Z,55.52
2018-11-21T23:51:49.928Z,63.13
2018-11-21T23:54:17.287Z,55.38
2018-11-21T23:56:44.560Z,62.10
2018-11-21T23:59:11.881Z,60.03
